createdAt,value
2022-10-12T00:00:23.224Z,99.20
2022-10-12T00:01:27.498Z,99.10
2022-10-12T00:02:30.297Z,99.10
2022-10-12T00:03:34.202Z,99.10
2022-10-12T00:04:37.942Z,99.10
2022-10-12T00:05:41.592Z,99.20
2022-10-12T00:06:53.764Z,99.20
2022-10-12T00:07:57.340Z,99.10
2022-10-12T00:09:01.153Z,99.70
2022-10-12T00:10:04.778Z,99.30
2022-10-12T00:11:14.357Z,99.20
2022-10-12T00:12:17.065Z,99.50
2022-10-12T00:13:21.033Z,99.30
2022-10-12T00:14:23.797Z,99.30
2022-10-12T00:15:32.313Z,99.30
2022-10-12T00:16:35.280Z,99.40
2022-10-12T00:17:39.446Z,99.40
2022-10-12T00:18:47.455Z,99.30
2022-10-12T00:19:56.468Z,99.40
2022-10-12T00:21:07.676Z,99.40
2022-10-12T00:22:11.464Z,99.40
2022-10-12T00:23:18.295Z,99.40
2022-10-12T00:24:20.942Z,99.40
2022-10-12T00:25:26.978Z,99.40
2022-10-12T00:26:30.538Z,99.50
2022-10-12T00:27:34.520Z,99.50
2022-10-12T00:28:37.809Z,99.60
2022-10-12T00:29:42.479Z,99.60
2022-10-12T00:30:46.667Z,99.60
2022-10-12T00:31:50.378Z,99.70
2022-10-12T00:32:53.011Z,99.70
2022-10-12T00:34:02.668Z,99.80
2022-10-12T00:35:05.963Z,99.40
2022-10-12T00:36:15.068Z,99.90
2022-10-12T00:37:17.876Z,99.90
2022-10-12T00:38:22.116Z,99.90
2022-10-12T00:39:24.850Z,99.90
2022-10-12T00:40:28.789Z,99.90
2022-10-12T00:41:34.710Z,99.80
2022-10-12T00:42:38.738Z,99.80
2022-10-12T00:43:55.315Z,99.80
2022-10-12T00:45:02.065Z,99.80
2022-10-12T00:46:14.021Z,99.80
2022-10-12T00:47:27.327Z,99.80
2022-10-12T00:48:30.900Z,99.80
2022-10-12T00:49:36.070Z,99.90
2022-10-12T00:50:43.528Z,99.90
2022-10-12T00:51:52.796Z,99.90
2022-10-12T00:53:01.880Z,99.90
2022-10-12T00:54:14.278Z,99.90
2022-10-12T00:55:23.673Z,99.90
2022-10-12T00:56:31.770Z,99.70
2022-10-12T00:57:45.921Z,99.90
2022-10-12T00:58:55.810Z,99.90
2022-10-12T01:00:06.035Z,99.90
2022-10-12T01:01:10.704Z,99.90
2022-10-12T01:02:16.218Z,99.90
2022-10-12T01:03:22.620Z,99.90
2022-10-12T01:04:26.904Z,99.90
2022-10-12T01:05:34.913Z,99.90
2022-10-12T01:06:37.912Z,99.90
2022-10-12T01:07:42.423Z,99.80
2022-10-12T01:08:45.683Z,99.80
2022-10-12T01:09:52.390Z,99.90
2022-10-12T01:10:57.628Z,99.90
2022-10-12T01:12:01.878Z,99.90
2022-10-12T01:13:06.340Z,99.60
2022-10-12T01:14:10.491Z,99.90
2022-10-12T01:15:14.550Z,99.90
2022-10-12T01:16:26.091Z,99.90
2022-10-12T01:17:45.682Z,99.90
2022-10-12T01:19:03.375Z,99.90
2022-10-12T01:20:36.335Z,99.50
2022-10-12T01:21:52.318Z,99.90
2022-10-12T01:23:18.858Z,99.90
2022-10-12T01:24:42.945Z,99.90
2022-10-12T01:26:10.651Z,99.90
2022-10-12T01:27:37.106Z,99.90
2022-10-12T01:28:55.877Z,99.90
2022-10-12T01:30:10.120Z,99.90
2022-10-12T01:31:23.049Z,99.90
2022-10-12T01:32:34.066Z,99.90
2022-10-12T01:33:45.952Z,99.90
2022-10-12T01:34:58.893Z,99.90
2022-10-12T01:36:08.184Z,99.90
2022-10-12T01:37:21.298Z,99.90
2022-10-12T01:38:45.855Z,99.90
2022-10-12T01:39:54.079Z,99.90
2022-10-12T01:41:04.538Z,99.90
2022-10-12T01:42:21.164Z,99.90
2022-10-12T01:43:29.684Z,99.90
2022-10-12T01:44:39.197Z,99.90
2022-10-12T01:45:47.692Z,99.90
2022-10-12T01:46:52.607Z,99.90
2022-10-12T01:47:57.122Z,99.90
2022-10-12T01:49:02.576Z,99.90
2022-10-12T01:50:16.483Z,99.90
2022-10-12T01:51:35.428Z,99.90
2022-10-12T01:52:48.032Z,99.90
2022-10-12T01:54:09.022Z,99.90
2022-10-12T01:55:37.681Z,99.90
2022-10-12T01:56:48.281Z,99.90
2022-10-12T01:58:10.724Z,99.90
2022-10-12T01:59:26.355Z,99.90
2022-10-12T02:00:37.738Z,99.90
2022-10-12T02:01:48.582Z,99.90
2022-10-12T02:02:58.671Z,99.90
2022-10-12T02:04:11.551Z,99.90
2022-10-12T02:05:25.261Z,99.90
2022-10-12T02:06:35.640Z,99.90
2022-10-12T02:07:45.971Z,99.90
2022-10-12T02:08:59.500Z,99.90
2022-10-12T02:10:05.374Z,99.90
2022-10-12T02:11:12.418Z,99.90
2022-10-12T02:12:21.022Z,99.90
2022-10-12T02:13:29.555Z,99.90
2022-10-12T02:14:38.793Z,99.90
2022-10-12T02:15:50.452Z,99.90
2022-10-12T02:16:59.251Z,99.90
2022-10-12T02:18:06.691Z,99.90
2022-10-12T02:19:16.294Z,99.90
2022-10-12T02:20:24.357Z,99.90
2022-10-12T02:21:33.643Z,99.90
2022-10-12T02:22:44.583Z,99.90
2022-10-12T02:23:52.031Z,99.90
2022-10-12T02:25:00.029Z,99.90
2022-10-12T02:26:03.914Z,99.90
2022-10-12T02:27:12.589Z,99.90
2022-10-12T02:28:21.383Z,99.90
2022-10-12T02:29:30.876Z,99.90
2022-10-12T02:30:39.082Z,99.90
2022-10-12T02:31:50.670Z,99.90
2022-10-12T02:33:04.612Z,99.90
2022-10-12T02:34:14.897Z,99.90
2022-10-12T02:35:25.910Z,99.90
2022-10-12T02:36:40.989Z,99.90
2022-10-12T02:37:50.285Z,99.90
2022-10-12T02:39:01.380Z,99.90
2022-10-12T02:40:14.869Z,99.90
2022-10-12T02:41:25.217Z,99.90
2022-10-12T02:43:05.613Z,99.90
2022-10-12T02:44:06.329Z,99.90
2022-10-12T02:45:15.718Z,99.90
2022-10-12T02:46:24.004Z,99.90
2022-10-12T02:47:32.790Z,99.90
2022-10-12T02:48:40.733Z,99.90
2022-10-12T02:49:47.596Z,99.90
2022-10-12T02:51:00.449Z,99.90
2022-10-12T02:52:06.439Z,99.90
2022-10-12T02:53:12.923Z,99.90
2022-10-12T02:54:18.150Z,99.90
2022-10-12T02:55:26.693Z,99.90
2022-10-12T02:56:29.229Z,99.90
2022-10-12T02:57:33.098Z,99.90
2022-10-12T02:58:35.628Z,99.90
2022-10-12T02:59:39.331Z,99.90
2022-10-12T03:00:47.013Z,99.90
2022-10-12T03:01:50.687Z,99.90
2022-10-12T03:02:53.249Z,99.90
2022-10-12T03:03:58.255Z,99.90
2022-10-12T03:05:00.691Z,99.90
2022-10-12T03:06:04.700Z,99.90
2022-10-12T03:07:07.267Z,99.90
2022-10-12T03:08:10.819Z,99.90
2022-10-12T03:09:14.288Z,99.90
2022-10-12T03:10:46.667Z,99.90
2022-10-12T03:11:52.469Z,99.90
2022-10-12T03:12:56.248Z,99.90
2022-10-12T03:13:58.807Z,99.90
2022-10-12T03:15:02.306Z,99.90
2022-10-12T03:16:08.279Z,99.90
2022-10-12T03:17:15.027Z,99.90
2022-10-12T03:18:17.451Z,99.90
2022-10-12T03:19:22.518Z,99.90
2022-10-12T03:20:25.702Z,99.90
2022-10-12T03:21:29.320Z,99.90
2022-10-12T03:22:32.246Z,99.90
2022-10-12T03:23:40.151Z,99.90
2022-10-12T03:24:43.026Z,99.90
2022-10-12T03:25:46.522Z,99.90
2022-10-12T03:26:49.209Z,99.90
2022-10-12T03:27:52.842Z,99.90
2022-10-12T03:28:56.091Z,99.90
2022-10-12T03:29:59.493Z,99.90
2022-10-12T03:31:37.454Z,99.90
2022-10-12T03:32:40.450Z,99.90
2022-10-12T03:33:43.901Z,99.90
2022-10-12T03:34:47.949Z,99.90
2022-10-12T03:35:51.922Z,99.90
2022-10-12T03:36:55.597Z,99.90
2022-10-12T03:37:58.328Z,99.90
2022-10-12T03:39:01.825Z,99.90
2022-10-12T03:40:04.923Z,99.90
2022-10-12T03:41:11.169Z,99.90
2022-10-12T03:42:14.202Z,99.90
2022-10-12T03:43:17.959Z,99.90
2022-10-12T03:44:20.563Z,99.90
2022-10-12T03:45:26.886Z,99.90
2022-10-12T03:46:29.590Z,99.90
2022-10-12T03:47:36.086Z,99.90
2022-10-12T03:48:38.975Z,99.90
2022-10-12T03:49:42.582Z,99.90
2022-10-12T03:50:51.460Z,99.90
2022-10-12T03:51:54.929Z,99.90
2022-10-12T03:52:57.337Z,99.90
2022-10-12T03:54:00.958Z,99.90
2022-10-12T03:55:03.664Z,99.90
2022-10-12T03:56:10.104Z,99.90
2022-10-12T03:57:12.648Z,99.90
2022-10-12T03:58:17.348Z,99.90
2022-10-12T03:59:24.467Z,99.90
2022-10-12T04:00:28.303Z,99.90
2022-10-12T04:01:31.243Z,99.90
2022-10-12T04:02:37.226Z,99.90
2022-10-12T04:03:39.985Z,99.90
2022-10-12T04:04:43.517Z,99.90
2022-10-12T04:05:55.391Z,99.90
2022-10-12T04:07:05.486Z,99.90
2022-10-12T04:08:08.046Z,99.90
2022-10-12T04:09:12.198Z,99.90
2022-10-12T04:10:14.909Z,99.90
2022-10-12T04:11:18.523Z,99.90
2022-10-12T04:12:25.977Z,99.90
2022-10-12T04:13:30.461Z,99.90
2022-10-12T04:14:33.677Z,99.90
2022-10-12T04:15:37.293Z,99.90
2022-10-12T04:16:40.200Z,99.90
2022-10-12T04:17:43.789Z,99.90
2022-10-12T04:18:46.632Z,99.90
2022-10-12T04:19:50.521Z,99.90
2022-10-12T04:20:53.578Z,99.90
2022-10-12T04:21:58.676Z,99.90
2022-10-12T04:23:04.060Z,99.90
2022-10-12T04:24:12.520Z,99.90
2022-10-12T04:25:15.001Z,99.90
2022-10-12T04:26:18.770Z,99.90
2022-10-12T04:27:21.639Z,99.90
2022-10-12T04:28:25.069Z,99.90
2022-10-12T04:29:29.745Z,99.90
2022-10-12T04:30:34.316Z,99.90
2022-10-12T04:31:37.024Z,99.90
2022-10-12T04:32:41.268Z,99.90
2022-10-12T04:33:44.167Z,99.90
2022-10-12T04:34:47.881Z,99.90
2022-10-12T04:35:50.476Z,99.90
2022-10-12T04:36:54.254Z,99.90
2022-10-12T04:37:58.917Z,99.90
2022-10-12T04:39:03.023Z,99.90
2022-10-12T04:40:06.648Z,99.90
2022-10-12T04:41:10.188Z,99.90
2022-10-12T04:42:12.577Z,99.90
2022-10-12T04:43:16.736Z,99.90
2022-10-12T04:44:19.423Z,99.90
2022-10-12T04:45:23.187Z,99.90
2022-10-12T04:46:26.237Z,99.90
2022-10-12T04:47:29.760Z,99.90
2022-10-12T04:48:33.555Z,99.90
2022-10-12T04:49:36.369Z,99.90
2022-10-12T04:50:39.983Z,99.90
2022-10-12T04:51:47.465Z,99.90
2022-10-12T04:52:51.258Z,99.90
2022-10-12T04:53:55.535Z,99.90
2022-10-12T04:54:59.146Z,99.90
2022-10-12T04:56:04.223Z,99.90
2022-10-12T04:57:07.832Z,99.90
2022-10-12T04:58:10.660Z,99.90
2022-10-12T04:59:19.623Z,99.90
2022-10-12T05:00:22.597Z,99.90
2022-10-12T05:01:26.451Z,99.90
2022-10-12T05:02:29.082Z,99.90
2022-10-12T05:03:32.931Z,99.90
2022-10-12T05:04:41.208Z,99.90
2022-10-12T05:05:46.081Z,99.90
2022-10-12T05:06:48.735Z,99.90
2022-10-12T05:07:54.682Z,99.90
2022-10-12T05:08:59.181Z,99.90
2022-10-12T05:10:03.516Z,99.90
2022-10-12T05:11:07.362Z,99.90
2022-10-12T05:12:11.235Z,99.90
2022-10-12T05:13:14.622Z,99.90
2022-10-12T05:14:18.389Z,99.90
2022-10-12T05:15:21.176Z,99.90
2022-10-12T05:16:24.703Z,99.90
2022-10-12T05:17:27.231Z,99.90
2022-10-12T05:18:33.307Z,99.90
2022-10-12T05:19:35.918Z,99.80
2022-10-12T05:20:39.609Z,99.60
2022-10-12T05:21:42.625Z,99.40
2022-10-12T05:22:46.317Z,99.20
2022-10-12T05:23:51.196Z,99.10
2022-10-12T05:25:02.397Z,98.90
2022-10-12T05:26:14.725Z,98.60
2022-10-12T05:27:23.443Z,98.30
2022-10-12T05:28:26.008Z,98.00
2022-10-12T05:29:29.571Z,97.70
2022-10-12T05:30:32.046Z,97.60
2022-10-12T05:31:36.171Z,97.40
2022-10-12T05:32:39.551Z,97.20
2022-10-12T05:33:43.422Z,96.90
2022-10-12T05:34:48.653Z,96.80
2022-10-12T05:35:56.389Z,96.70
2022-10-12T05:36:59.210Z,96.20
2022-10-12T05:38:03.093Z,96.30
2022-10-12T05:39:06.252Z,96.00
2022-10-12T05:40:12.303Z,95.60
2022-10-12T05:41:15.380Z,95.30
2022-10-12T05:42:19.414Z,95.40
2022-10-12T05:43:22.180Z,95.40
2022-10-12T05:44:25.706Z,95.30
2022-10-12T05:45:28.211Z,95.20
2022-10-12T05:46:31.810Z,95.10
2022-10-12T05:47:34.525Z,94.90
2022-10-12T05:48:41.313Z,94.80
2022-10-12T05:49:44.990Z,94.80
2022-10-12T05:50:48.959Z,94.80
2022-10-12T05:51:51.711Z,94.40
2022-10-12T05:52:55.215Z,94.20
2022-10-12T05:53:57.712Z,94.00
2022-10-12T05:55:01.598Z,93.90
2022-10-12T05:56:06.284Z,93.90
2022-10-12T05:57:10.078Z,93.70
2022-10-12T05:58:12.641Z,93.40
2022-10-12T05:59:16.333Z,93.90
2022-10-12T06:00:19.253Z,94.30
2022-10-12T06:01:22.838Z,94.00
2022-10-12T06:02:25.387Z,93.50
2022-10-12T06:03:34.663Z,92.90
2022-10-12T06:04:37.456Z,92.20
2022-10-12T06:05:41.456Z,91.80
2022-10-12T06:06:44.034Z,91.50
2022-10-12T06:07:47.860Z,91.50
2022-10-12T06:08:50.738Z,91.20
2022-10-12T06:09:54.717Z,91.20
2022-10-12T06:10:57.381Z,90.90
2022-10-12T06:12:02.803Z,90.90
2022-10-12T06:13:05.621Z,90.50
2022-10-12T06:14:09.734Z,90.50
2022-10-12T06:15:12.394Z,90.30
2022-10-12T06:16:15.889Z,90.20
2022-10-12T06:17:18.615Z,90.00
2022-10-12T06:18:22.615Z,89.50
2022-10-12T06:19:25.159Z,88.80
2022-10-12T06:20:28.890Z,88.50
2022-10-12T06:21:34.229Z,87.60
2022-10-12T06:22:38.463Z,87.70
2022-10-12T06:23:41.253Z,86.90
2022-10-12T06:24:45.059Z,86.70
2022-10-12T06:25:49.288Z,86.00
2022-10-12T06:26:53.020Z,85.70
2022-10-12T06:27:57.123Z,84.70
2022-10-12T06:29:01.598Z,84.00
2022-10-12T06:30:05.867Z,84.00
2022-10-12T06:31:09.371Z,83.60
2022-10-12T06:32:12.930Z,82.80
2022-10-12T06:33:15.551Z,81.40
2022-10-12T06:34:19.449Z,81.10
2022-10-12T06:35:23.242Z,80.70
2022-10-12T06:36:26.366Z,80.00
2022-10-12T06:37:48.954Z,79.40
2022-10-12T06:38:53.194Z,79.10
2022-10-12T06:39:57.869Z,78.80
2022-10-12T06:41:01.531Z,77.60
2022-10-12T06:42:04.798Z,77.10
2022-10-12T06:43:11.014Z,76.80
2022-10-12T06:44:14.445Z,76.30
2022-10-12T06:45:19.161Z,76.10
2022-10-12T06:46:21.959Z,89.20
2022-10-12T06:47:25.677Z,92.90
2022-10-12T06:48:29.407Z,91.10
2022-10-12T06:49:33.286Z,90.00
2022-10-12T06:50:36.693Z,88.80
2022-10-12T06:51:40.706Z,87.50
2022-10-12T06:52:44.797Z,86.30
2022-10-12T06:53:47.530Z,83.30
2022-10-12T06:54:51.871Z,81.70
2022-10-12T06:55:54.321Z,79.50
2022-10-12T06:56:58.910Z,77.70
2022-10-12T06:58:02.555Z,69.70
2022-10-12T06:59:06.530Z,68.00
2022-10-12T07:00:11.276Z,66.80
2022-10-12T07:01:15.095Z,66.70
2022-10-12T07:02:19.301Z,67.10
2022-10-12T07:03:21.928Z,65.70
2022-10-12T07:04:25.472Z,65.50
2022-10-12T07:05:28.527Z,65.50
2022-10-12T07:06:32.185Z,65.60
2022-10-12T07:07:38.317Z,66.00
2022-10-12T07:08:43.221Z,65.80
2022-10-12T07:09:45.984Z,65.30
2022-10-12T07:10:49.695Z,64.60
2022-10-12T07:11:52.563Z,65.20
2022-10-12T07:12:56.078Z,65.50
2022-10-12T07:13:59.018Z,66.70
2022-10-12T07:15:04.253Z,75.30
2022-10-12T07:16:07.560Z,76.80
2022-10-12T07:17:13.745Z,76.70
2022-10-12T07:18:16.567Z,75.40
2022-10-12T07:19:20.696Z,73.10
2022-10-12T07:20:23.643Z,73.60
2022-10-12T07:21:27.542Z,72.60
2022-10-12T07:22:30.154Z,72.30
2022-10-12T07:23:35.226Z,70.60
2022-10-12T07:24:37.886Z,67.70
2022-10-12T07:25:41.483Z,68.20
2022-10-12T07:26:44.117Z,63.60
2022-10-12T07:27:49.494Z,61.90
2022-10-12T07:28:52.192Z,61.10
2022-10-12T07:29:56.247Z,60.90
2022-10-12T07:31:04.489Z,59.60
2022-10-12T07:32:09.224Z,59.40
2022-10-12T07:33:11.943Z,59.60
2022-10-12T07:34:15.488Z,59.30
2022-10-12T07:35:19.238Z,59.40
2022-10-12T07:36:23.634Z,59.40
2022-10-12T07:37:27.128Z,59.20
2022-10-12T07:38:31.690Z,58.90
2022-10-12T07:39:35.299Z,59.20
2022-10-12T07:40:38.346Z,59.00
2022-10-12T07:41:42.011Z,60.10
2022-10-12T07:43:11.878Z,59.90
2022-10-12T07:44:09.300Z,59.80
2022-10-12T07:45:12.176Z,59.70
2022-10-12T07:46:17.273Z,59.00
2022-10-12T07:47:19.771Z,59.50
2022-10-12T07:48:24.523Z,59.20
2022-10-12T07:49:26.932Z,58.30
2022-10-12T07:50:35.197Z,59.00
2022-10-12T07:51:43.859Z,59.00
2022-10-12T07:52:47.426Z,59.30
2022-10-12T07:53:51.004Z,59.40
2022-10-12T07:54:57.042Z,58.90
2022-10-12T07:56:01.457Z,58.40
2022-10-12T07:57:05.743Z,58.30
2022-10-12T07:58:08.774Z,58.30
2022-10-12T07:59:12.169Z,58.30
2022-10-12T08:00:16.586Z,64.80
2022-10-12T08:01:22.861Z,66.50
2022-10-12T08:02:26.685Z,68.70
2022-10-12T08:03:30.308Z,64.40
2022-10-12T08:04:34.126Z,62.40
2022-10-12T08:05:38.117Z,61.00
2022-10-12T08:06:44.689Z,61.90
2022-10-12T08:07:47.653Z,59.00
2022-10-12T08:08:51.650Z,58.70
2022-10-12T08:09:54.240Z,60.60
2022-10-12T08:11:02.296Z,59.80
2022-10-12T08:12:08.857Z,60.00
2022-10-12T08:13:12.523Z,58.30
2022-10-12T08:14:17.687Z,58.60
2022-10-12T08:15:20.648Z,58.40
2022-10-12T08:16:25.673Z,58.60
2022-10-12T08:17:30.545Z,58.00
2022-10-12T08:18:34.375Z,57.90
2022-10-12T08:19:38.060Z,56.10
2022-10-12T08:20:40.537Z,58.70
2022-10-12T08:21:44.020Z,57.60
2022-10-12T08:22:46.477Z,57.80
2022-10-12T08:23:50.714Z,57.10
2022-10-12T08:24:55.238Z,56.60
2022-10-12T08:25:58.723Z,57.70
2022-10-12T08:27:02.305Z,55.80
2022-10-12T08:28:04.961Z,56.00
2022-10-12T08:29:11.747Z,55.60
2022-10-12T08:30:14.668Z,56.70
2022-10-12T08:31:19.480Z,56.60
2022-10-12T08:32:23.409Z,55.90
2022-10-12T08:33:30.775Z,56.00
2022-10-12T08:34:34.992Z,56.50
2022-10-12T08:35:40.719Z,56.10
2022-10-12T08:36:44.465Z,57.00
2022-10-12T08:37:46.978Z,57.10
2022-10-12T08:38:55.370Z,57.60
2022-10-12T08:40:08.033Z,57.10
2022-10-12T08:41:37.875Z,56.90
2022-10-12T08:42:56.296Z,56.70
2022-10-12T08:44:23.205Z,56.80
2022-10-12T08:45:40.582Z,57.60
2022-10-12T08:46:43.296Z,55.60
2022-10-12T08:47:54.766Z,56.90
2022-10-12T08:49:02.997Z,56.20
2022-10-12T08:50:15.965Z,55.70
2022-10-12T08:51:24.789Z,57.00
2022-10-12T08:52:39.244Z,55.80
2022-10-12T08:53:50.303Z,54.20
2022-10-12T08:54:56.278Z,54.80
2022-10-12T08:55:59.524Z,55.10
2022-10-12T08:57:09.364Z,55.00
2022-10-12T08:58:17.863Z,55.00
2022-10-12T08:59:20.606Z,56.70
2022-10-12T09:00:25.031Z,55.50
2022-10-12T09:01:37.648Z,55.10
2022-10-12T09:02:57.741Z,56.60
2022-10-12T09:04:17.287Z,55.00
2022-10-12T09:05:31.060Z,54.70
2022-10-12T09:06:41.086Z,54.40
2022-10-12T09:07:56.154Z,54.50
2022-10-12T09:09:10.899Z,54.20
2022-10-12T09:10:30.226Z,55.70
2022-10-12T09:12:01.965Z,55.40
2022-10-12T09:13:20.204Z,56.20
2022-10-12T09:14:27.710Z,55.20
2022-10-12T09:15:38.163Z,56.00
2022-10-12T09:16:45.348Z,56.50
2022-10-12T09:17:54.154Z,57.70
2022-10-12T09:19:04.597Z,57.90
2022-10-12T09:20:22.851Z,58.10
2022-10-12T09:21:31.423Z,56.40
2022-10-12T09:22:35.464Z,57.30
2022-10-12T09:23:44.353Z,57.40
2022-10-12T09:24:50.085Z,57.10
2022-10-12T09:25:58.282Z,56.90
2022-10-12T09:27:14.486Z,56.20
2022-10-12T09:28:27.726Z,55.50
2022-10-12T09:29:34.076Z,56.30
2022-10-12T09:30:48.187Z,56.40
2022-10-12T09:32:21.933Z,57.00
2022-10-12T09:33:34.087Z,57.70
2022-10-12T09:34:37.281Z,55.90
2022-10-12T09:35:43.899Z,56.50
2022-10-12T09:36:49.556Z,56.50
2022-10-12T09:37:55.252Z,58.00
2022-10-12T09:39:05.480Z,56.50
2022-10-12T09:40:23.482Z,56.10
2022-10-12T09:41:33.768Z,56.20
2022-10-12T09:42:37.344Z,55.00
2022-10-12T09:43:40.627Z,56.20
2022-10-12T09:44:48.299Z,56.30
2022-10-12T09:45:57.274Z,57.00
2022-10-12T09:47:04.885Z,55.90
2022-10-12T09:48:17.946Z,55.70
2022-10-12T09:49:22.303Z,55.60
2022-10-12T09:50:42.192Z,55.60
2022-10-12T09:51:47.666Z,55.50
2022-10-12T09:52:55.381Z,55.90
2022-10-12T09:54:04.329Z,55.50
2022-10-12T09:55:25.295Z,55.30
2022-10-12T09:56:36.457Z,55.90
2022-10-12T09:57:43.915Z,55.20
2022-10-12T09:58:59.165Z,55.10
2022-10-12T10:00:06.676Z,55.20
2022-10-12T10:01:25.902Z,54.20
2022-10-12T10:02:31.957Z,54.00
2022-10-12T10:03:34.615Z,55.50
2022-10-12T10:04:40.709Z,54.90
2022-10-12T10:05:43.218Z,54.20
2022-10-12T10:06:51.017Z,55.20
2022-10-12T10:08:20.523Z,56.60
2022-10-12T10:09:30.220Z,55.80
2022-10-12T10:10:33.937Z,54.90
2022-10-12T10:11:42.085Z,56.20
2022-10-12T10:12:53.920Z,56.50
2022-10-12T10:13:56.952Z,56.60
2022-10-12T10:15:02.340Z,56.40
2022-10-12T10:16:09.153Z,55.50
2022-10-12T10:17:18.358Z,55.80
2022-10-12T10:18:27.436Z,55.20
2022-10-12T10:19:31.319Z,54.80
2022-10-12T10:20:42.922Z,54.60
2022-10-12T10:21:47.330Z,56.50
2022-10-12T10:22:50.159Z,58.10
2022-10-12T10:24:01.483Z,55.50
2022-10-12T10:25:20.097Z,57.50
2022-10-12T10:26:25.750Z,57.60
2022-10-12T10:27:33.750Z,56.60
2022-10-12T10:28:40.098Z,55.90
2022-10-12T10:29:45.538Z,58.40
2022-10-12T10:31:02.662Z,57.70
2022-10-12T10:32:24.507Z,56.70
2022-10-12T10:33:27.215Z,55.90
2022-10-12T10:34:30.728Z,54.50
2022-10-12T10:35:36.214Z,56.70
2022-10-12T10:36:45.383Z,57.80
2022-10-12T10:37:56.460Z,56.90
2022-10-12T10:39:06.957Z,57.60
2022-10-12T10:40:21.854Z,57.00
2022-10-12T10:41:31.742Z,56.80
2022-10-12T10:42:36.638Z,56.90
2022-10-12T10:43:39.396Z,55.50
2022-10-12T10:44:50.662Z,57.90
2022-10-12T10:46:00.454Z,57.30
2022-10-12T10:47:11.464Z,58.00
2022-10-12T10:48:21.065Z,58.70
2022-10-12T10:49:30.798Z,57.80
2022-10-12T10:50:39.308Z,58.50
2022-10-12T10:51:47.883Z,59.00
2022-10-12T10:52:58.221Z,59.20
2022-10-12T10:54:16.581Z,59.10
2022-10-12T10:55:24.618Z,59.30
2022-10-12T10:56:31.361Z,58.50
2022-10-12T10:57:37.999Z,57.30
2022-10-12T10:58:47.282Z,56.50
2022-10-12T11:00:14.123Z,57.90
2022-10-12T11:01:28.615Z,56.80
2022-10-12T11:02:41.930Z,57.00
2022-10-12T11:03:57.731Z,55.70
2022-10-12T11:05:09.340Z,56.80
2022-10-12T11:06:32.906Z,56.20
2022-10-12T11:07:43.455Z,58.60
2022-10-12T11:08:50.799Z,57.30
2022-10-12T11:09:56.951Z,58.50
2022-10-12T11:11:09.479Z,56.80
2022-10-12T11:12:17.803Z,57.00
2022-10-12T11:13:26.975Z,56.90
2022-10-12T11:14:44.668Z,59.50
2022-10-12T11:15:54.343Z,58.40
2022-10-12T11:17:04.724Z,60.20
2022-10-12T11:18:19.948Z,58.20
2022-10-12T11:19:32.034Z,57.10
2022-10-12T11:20:50.017Z,58.30
2022-10-12T11:22:01.653Z,58.70
2022-10-12T11:23:25.751Z,57.60
2022-10-12T11:24:38.452Z,58.20
2022-10-12T11:25:49.291Z,56.80
2022-10-12T11:27:00.664Z,57.30
2022-10-12T11:28:07.582Z,57.70
2022-10-12T11:29:18.183Z,55.10
2022-10-12T11:30:24.427Z,55.00
2022-10-12T11:31:37.001Z,55.00
2022-10-12T11:32:44.880Z,55.30
2022-10-12T11:33:50.241Z,56.90
2022-10-12T11:35:01.270Z,56.00
2022-10-12T11:36:10.978Z,54.80
2022-10-12T11:37:21.442Z,57.40
2022-10-12T11:38:30.608Z,56.60
2022-10-12T11:39:39.569Z,56.10
2022-10-12T11:42:22.897Z,54.70
2022-10-12T11:43:31.916Z,56.60
2022-10-12T11:44:43.310Z,55.20
2022-10-12T11:45:51.703Z,55.40
2022-10-12T11:47:02.272Z,54.70
2022-10-12T11:48:13.973Z,55.60
2022-10-12T11:49:28.760Z,54.40
2022-10-12T11:50:38.183Z,55.40
2022-10-12T11:51:42.434Z,54.70
2022-10-12T11:52:53.031Z,55.60
2022-10-12T11:54:07.954Z,55.90
2022-10-12T11:55:45.101Z,55.50
2022-10-12T11:56:54.603Z,55.00
2022-10-12T11:58:09.091Z,55.60
2022-10-12T11:59:28.923Z,55.10
2022-10-12T12:00:43.407Z,55.00
2022-10-12T12:02:02.334Z,56.30
2022-10-12T12:03:22.115Z,54.80
2022-10-12T12:04:42.286Z,56.20
2022-10-12T12:05:47.982Z,57.00
2022-10-12T12:06:54.084Z,57.40
2022-10-12T12:07:59.538Z,57.00
2022-10-12T12:09:19.513Z,55.60
2022-10-12T12:11:05.632Z,56.80
2022-10-12T12:12:21.326Z,57.30
2022-10-12T12:13:27.685Z,57.00
2022-10-12T12:15:04.204Z,56.40
2022-10-12T12:16:35.486Z,56.50
2022-10-12T12:17:39.309Z,56.10
2022-10-12T12:19:12.613Z,56.20
2022-10-12T12:20:53.028Z,55.80
2022-10-12T12:22:30.394Z,55.40
2022-10-12T12:23:53.545Z,55.60
2022-10-12T12:25:19.761Z,55.80
2022-10-12T12:26:28.703Z,55.40
2022-10-12T12:27:40.012Z,56.30
2022-10-12T12:28:46.179Z,56.40
2022-10-12T12:29:51.983Z,56.50
2022-10-12T12:31:01.611Z,56.50
2022-10-12T12:32:04.597Z,57.20
2022-10-12T12:33:29.963Z,55.50
2022-10-12T12:34:33.731Z,54.80
2022-10-12T12:35:41.647Z,55.00
2022-10-12T12:36:47.966Z,55.50
2022-10-12T12:38:02.860Z,55.00
2022-10-12T12:39:22.296Z,54.60
2022-10-12T12:40:25.395Z,55.20
2022-10-12T12:41:53.224Z,55.20
2022-10-12T12:43:21.445Z,55.80
2022-10-12T12:44:41.627Z,54.50
2022-10-12T12:45:55.792Z,57.30
2022-10-12T12:47:43.941Z,57.80
2022-10-12T12:49:01.396Z,58.00
2022-10-12T12:50:31.127Z,57.50
2022-10-12T12:51:39.105Z,56.50
2022-10-12T12:52:43.202Z,56.20
2022-10-12T12:53:51.586Z,56.70
2022-10-12T12:55:33.262Z,57.40
2022-10-12T12:56:46.838Z,57.10
2022-10-12T12:58:20.846Z,57.20
2022-10-12T12:59:49.964Z,55.90
2022-10-12T13:01:11.909Z,55.60
2022-10-12T13:02:54.443Z,56.00
2022-10-12T13:04:36.685Z,55.70
2022-10-12T13:06:28.571Z,56.10
2022-10-12T13:08:03.972Z,55.90
2022-10-12T13:09:37.300Z,56.20
2022-10-12T13:11:00.686Z,56.20
2022-10-12T13:12:39.151Z,55.70
2022-10-12T13:14:00.425Z,56.80
2022-10-12T13:15:22.324Z,56.50
2022-10-12T13:18:48.116Z,54.20
2022-10-12T13:19:56.257Z,54.60
2022-10-12T13:20:59.611Z,54.80
2022-10-12T13:22:06.895Z,55.10
2022-10-12T13:23:19.307Z,55.30
2022-10-12T13:24:26.405Z,55.70
2022-10-12T13:25:37.162Z,56.00
2022-10-12T13:26:43.826Z,56.50
2022-10-12T13:27:54.111Z,56.50
2022-10-12T13:29:00.979Z,57.60
2022-10-12T13:30:14.739Z,57.20
2022-10-12T13:31:24.666Z,57.50
2022-10-12T13:32:45.885Z,57.80
2022-10-12T13:34:00.054Z,58.10
2022-10-12T13:35:16.488Z,58.30
2022-10-12T13:36:24.123Z,58.20
2022-10-12T13:37:31.893Z,58.50
2022-10-12T13:38:38.599Z,58.60
2022-10-12T13:39:44.934Z,58.90
2022-10-12T13:41:00.273Z,59.00
2022-10-12T13:42:07.347Z,59.10
2022-10-12T13:43:27.355Z,58.90
2022-10-12T13:44:36.927Z,59.30
2022-10-12T13:45:45.121Z,59.80
2022-10-12T13:46:51.918Z,59.90
2022-10-12T13:48:04.640Z,59.90
2022-10-12T13:49:17.212Z,59.90
2022-10-12T13:50:21.398Z,60.00
2022-10-12T13:51:28.629Z,59.40
2022-10-12T13:52:35.061Z,59.10
2022-10-12T13:53:40.802Z,59.10
2022-10-12T13:54:48.916Z,59.00
2022-10-12T13:55:59.251Z,59.60
2022-10-12T13:57:11.466Z,59.70
2022-10-12T13:58:26.160Z,59.30
2022-10-12T13:59:34.922Z,63.40
2022-10-12T14:00:38.950Z,65.90
2022-10-12T14:01:54.156Z,67.50
2022-10-12T14:03:00.454Z,67.10
2022-10-12T14:04:06.545Z,62.70
2022-10-12T14:05:20.929Z,60.60
2022-10-12T14:06:28.070Z,62.60
2022-10-12T14:07:35.106Z,60.00
2022-10-12T14:08:39.466Z,60.70
2022-10-12T14:09:51.263Z,60.50
2022-10-12T14:10:57.704Z,58.50
2022-10-12T14:12:01.512Z,58.20
2022-10-12T14:13:09.403Z,61.70
2022-10-12T14:14:25.345Z,63.80
2022-10-12T14:15:34.347Z,62.70
2022-10-12T14:16:37.850Z,61.80
2022-10-12T14:17:45.805Z,59.90
2022-10-12T14:18:49.064Z,61.90
2022-10-12T14:19:54.633Z,62.10
2022-10-12T14:21:07.732Z,61.60
2022-10-12T14:22:12.235Z,60.60
2022-10-12T14:23:22.680Z,61.40
2022-10-12T14:24:25.328Z,61.00
2022-10-12T14:25:31.359Z,61.60
2022-10-12T14:26:41.186Z,61.50
2022-10-12T14:27:45.640Z,59.30
2022-10-12T14:28:49.838Z,60.70
2022-10-12T14:29:58.681Z,59.10
2022-10-12T14:31:01.879Z,59.10
2022-10-12T14:32:08.678Z,59.10
2022-10-12T14:33:23.075Z,59.30
2022-10-12T14:34:41.565Z,59.60
2022-10-12T14:35:48.380Z,59.90
2022-10-12T14:37:00.886Z,60.10
2022-10-12T14:38:38.737Z,60.20
2022-10-12T14:39:42.721Z,60.50
2022-10-12T14:40:46.220Z,60.90
2022-10-12T14:41:51.600Z,61.30
2022-10-12T14:42:59.239Z,61.70
2022-10-12T14:44:14.091Z,62.00
2022-10-12T14:45:26.901Z,62.20
2022-10-12T14:46:30.383Z,62.50